createdAt,value
2018-05-04T00:00:52.184Z,10.10
2018-05-04T00:03:19.702Z,10.20
2018-05-04T00:05:47.188Z,10.10
2018-05-04T00:08:14.702Z,10.10
2018-05-04T00:10:42.220Z,10.10
2018-05-04T00:13:09.710Z,10.10
2018-05-04T00:15:37.991Z,10.00
2018-05-04T00:18:05.512Z,10.00
2018-05-04T00:20:33.014Z,10.00
2018-05-04T00:23:00.524Z,10.00
2018-05-04T00:25:28.022Z,10.00
2018-05-04T00:27:55.553Z,10.00
2018-05-04T00:30:23.050Z,10.00
2018-05-04T00:32:50.547Z,9.90
2018-05-04T00:35:18.052Z,9.90
2018-05-04T00:37:45.573Z,9.80
2018-05-04T00:40:13.817Z,9.80
2018-05-04T00:42:41.340Z,9.80
2018-05-04T00:45:09.014Z,9.80
2018-05-04T00:47:36.506Z,9.70
2018-05-04T00:50:04.096Z,9.70
2018-05-04T00:52:32.411Z,9.70
2018-05-04T00:54:59.928Z,9.70
2018-05-04T00:57:27.488Z,9.60
2018-05-04T00:59:54.976Z,9.60
2018-05-04T01:02:23.249Z,9.60
2018-05-04T01:04:51.646Z,9.60
2018-05-04T01:07:20.026Z,9.50
2018-05-04T01:09:47.530Z,9.50
2018-05-04T01:12:15.016Z,9.50
2018-05-04T01:14:42.504Z,9.50
2018-05-04T01:17:10.776Z,9.50
2018-05-04T01:19:39.786Z,9.40
2018-05-04T01:22:08.057Z,9.40
2018-05-04T01:24:35.559Z,9.40
2018-05-04T01:27:03.580Z,9.40
2018-05-04T01:29:31.102Z,9.40
2018-05-04T01:31:58.596Z,9.40
2018-05-04T01:34:26.138Z,9.40
2018-05-04T01:36:53.770Z,9.30
2018-05-04T01:39:22.030Z,9.30
2018-05-04T01:41:50.314Z,9.30
2018-05-04T01:44:17.801Z,9.30
2018-05-04T01:46:45.325Z,9.30
2018-05-04T01:49:12.840Z,9.30
2018-05-04T01:51:40.349Z,9.20
2018-05-04T01:54:07.882Z,9.20
2018-05-04T01:56:35.402Z,9.20
2018-05-04T01:59:03.691Z,9.20
2018-05-04T02:01:31.983Z,9.10
2018-05-04T02:03:59.589Z,9.10
2018-05-04T02:06:27.126Z,9.10
2018-05-04T02:08:54.616Z,9.00
2018-05-04T02:11:22.124Z,9.10
2018-05-04T02:13:50.372Z,9.00
2018-05-04T02:16:17.871Z,9.00
2018-05-04T02:18:45.519Z,9.00
2018-05-04T02:21:13.007Z,9.00
2018-05-04T02:23:41.291Z,9.00
2018-05-04T02:26:09.553Z,9.00
2018-05-04T02:28:37.853Z,8.90
2018-05-04T02:31:05.337Z,8.90
2018-05-04T02:33:32.964Z,8.90
2018-05-04T02:36:01.262Z,8.80
2018-05-04T02:38:28.759Z,8.80
2018-05-04T02:40:56.273Z,8.80
2018-05-04T02:43:24.547Z,8.70
2018-05-04T02:45:52.809Z,8.70
2018-05-04T02:48:20.477Z,8.70
2018-05-04T02:50:48.000Z,8.70
2018-05-04T02:53:15.480Z,8.70
2018-05-04T02:55:43.044Z,8.70
2018-05-04T02:58:10.552Z,8.70
2018-05-04T03:00:38.117Z,8.70
2018-05-04T03:03:06.364Z,8.70
2018-05-04T03:05:33.989Z,8.70
2018-05-04T03:08:01.469Z,8.60
2018-05-04T03:10:28.964Z,8.60
2018-05-04T03:12:56.456Z,8.60
2018-05-04T03:15:24.725Z,8.60
2018-05-04T03:17:52.971Z,8.60
2018-05-04T03:20:20.537Z,8.60
2018-05-04T03:22:48.060Z,8.60
2018-05-04T03:25:17.417Z,8.50
2018-05-04T03:27:44.905Z,8.50
2018-05-04T03:30:13.165Z,8.50
2018-05-04T03:32:40.677Z,8.50
2018-05-04T03:35:08.191Z,8.50
2018-05-04T03:37:35.773Z,8.50
2018-05-04T03:40:04.154Z,8.50
2018-05-04T03:42:33.212Z,8.50
2018-05-04T03:45:00.712Z,8.60
2018-05-04T03:47:29.011Z,8.60
2018-05-04T03:49:57.280Z,8.60
2018-05-04T03:52:25.531Z,8.60
2018-05-04T03:54:53.018Z,8.50
2018-05-04T04:00:32.766Z,8.60
2018-05-04T04:03:13.787Z,8.60
2018-05-04T04:05:42.132Z,8.60
2018-05-04T04:08:10.392Z,8.70
2018-05-04T04:10:37.889Z,8.60
2018-05-04T04:13:06.043Z,8.70
2018-05-04T04:15:33.552Z,8.70
2018-05-04T04:18:01.085Z,8.70
2018-05-04T04:20:29.562Z,8.80
2018-05-04T04:22:57.836Z,8.90
2018-05-04T04:25:25.327Z,8.90
2018-05-04T04:27:52.849Z,8.90
2018-05-04T04:30:20.377Z,9.00
2018-05-04T04:32:47.909Z,9.00
2018-05-04T04:35:15.439Z,9.10
2018-05-04T04:37:42.986Z,9.10
2018-05-04T04:40:10.493Z,9.20
2018-05-04T04:42:39.096Z,9.40
2018-05-04T04:45:06.621Z,9.30
2018-05-04T04:47:34.113Z,9.40
2018-05-04T04:50:02.385Z,9.60
2018-05-04T04:52:30.684Z,9.70
2018-05-04T04:54:58.168Z,9.70
2018-05-04T04:57:25.691Z,9.80
2018-05-04T04:59:53.949Z,11.40
2018-05-04T05:02:21.461Z,11.30
2018-05-04T05:04:48.967Z,12.50
2018-05-04T05:07:16.491Z,13.50
2018-05-04T05:09:43.989Z,14.30
2018-05-04T05:12:11.511Z,14.70
2018-05-04T05:14:39.007Z,15.10
2018-05-04T05:17:06.548Z,15.40
2018-05-04T05:19:34.043Z,15.80
2018-05-04T05:22:01.652Z,16.10
2018-05-04T05:24:29.061Z,16.40
2018-05-04T05:26:56.607Z,16.70
2018-05-04T05:29:24.187Z,16.70
2018-05-04T05:31:51.698Z,16.70
2018-05-04T05:34:19.985Z,16.60
2018-05-04T05:36:48.273Z,16.60
2018-05-04T05:39:16.542Z,16.70
2018-05-04T05:41:44.827Z,16.90
2018-05-04T05:44:14.167Z,17.20
2018-05-04T05:46:41.667Z,17.20
2018-05-04T05:49:09.171Z,17.20
2018-05-04T05:51:36.690Z,17.30
2018-05-04T05:54:04.276Z,17.30
2018-05-04T05:56:31.771Z,17.20
2018-05-04T05:58:59.269Z,17.40
2018-05-04T06:01:26.763Z,17.30
2018-05-04T06:03:54.284Z,17.30
2018-05-04T06:06:21.783Z,17.20
2018-05-04T06:08:49.299Z,17.20
2018-05-04T06:11:16.809Z,17.10
2018-05-04T06:13:44.328Z,17.20
2018-05-04T06:16:11.843Z,17.40
2018-05-04T06:18:39.375Z,17.50
2018-05-04T06:21:07.008Z,17.30
2018-05-04T06:23:34.635Z,17.50
2018-05-04T06:26:04.655Z,17.60
2018-05-04T06:28:33.265Z,17.80
2018-05-04T06:31:01.515Z,17.90
2018-05-04T06:33:29.615Z,17.90
2018-05-04T06:35:57.914Z,18.10
2018-05-04T06:38:25.427Z,18.10
2018-05-04T06:40:52.994Z,17.90
2018-05-04T06:43:21.284Z,17.90
2018-05-04T06:45:48.787Z,17.80
2018-05-04T06:48:16.326Z,17.80
2018-05-04T06:50:44.573Z,17.80
2018-05-04T06:53:12.181Z,17.80
2018-05-04T06:55:39.621Z,17.80
2018-05-04T06:58:07.147Z,17.90
2018-05-04T07:00:34.631Z,17.80
2018-05-04T07:03:02.159Z,17.80
2018-05-04T07:05:29.695Z,17.80
2018-05-04T07:07:57.970Z,17.90
2018-05-04T07:10:26.271Z,18.00
2018-05-04T07:12:53.764Z,17.90
2018-05-04T07:15:21.286Z,18.00
2018-05-04T07:17:49.551Z,18.00
2018-05-04T07:20:17.837Z,17.90
2018-05-04T07:22:46.138Z,17.80
2018-05-04T07:25:13.664Z,17.80
2018-05-04T07:27:42.068Z,17.60
2018-05-04T07:30:10.363Z,17.50
2018-05-04T07:32:38.645Z,17.30
2018-05-04T07:35:06.208Z,17.20
2018-05-04T07:37:35.708Z,17.40
2018-05-04T07:40:03.974Z,17.50
2018-05-04T07:42:31.516Z,17.50
2018-05-04T07:44:59.078Z,17.40
2018-05-04T07:47:26.606Z,17.30
2018-05-04T07:49:54.123Z,17.20
2018-05-04T07:52:21.641Z,17.30
2018-05-04T07:54:49.229Z,17.40
2018-05-04T07:57:16.741Z,17.30
2018-05-04T07:59:44.331Z,17.10
2018-05-04T08:02:11.877Z,17.10
2018-05-04T08:04:39.409Z,17.00
2018-05-04T08:07:06.897Z,16.80
2018-05-04T08:09:35.147Z,16.70
2018-05-04T08:12:02.962Z,16.70
2018-05-04T08:14:30.484Z,16.70
2018-05-04T08:16:57.985Z,16.60
2018-05-04T08:19:26.886Z,16.40
2018-05-04T08:21:54.407Z,16.40
2018-05-04T08:24:21.919Z,16.40
2018-05-04T08:26:49.415Z,16.20
2018-05-04T08:29:17.314Z,16.10
2018-05-04T08:31:45.722Z,16.20
2018-05-04T08:34:13.285Z,16.20
2018-05-04T08:36:41.653Z,16.10
2018-05-04T08:39:10.632Z,16.10
2018-05-04T08:41:41.463Z,16.20
2018-05-04T08:44:09.019Z,16.20
2018-05-04T08:46:36.510Z,16.30
2018-05-04T08:49:05.167Z,16.40
2018-05-04T08:51:32.689Z,16.40
2018-05-04T08:54:00.207Z,16.40
2018-05-04T08:56:27.698Z,16.40
2018-05-04T08:58:55.967Z,16.40
2018-05-04T09:01:24.266Z,16.50
2018-05-04T09:03:52.569Z,16.40
2018-05-04T09:06:20.123Z,16.40
2018-05-04T09:08:47.632Z,16.40
2018-05-04T09:11:16.908Z,16.40
2018-05-04T09:13:44.487Z,16.50
2018-05-04T09:16:11.985Z,16.50
2018-05-04T09:18:39.586Z,16.40
2018-05-04T09:21:07.089Z,16.20
2018-05-04T09:23:34.568Z,16.20
2018-05-04T09:26:02.081Z,16.20
2018-05-04T09:28:29.582Z,16.20
2018-05-04T09:30:58.083Z,16.10
2018-05-04T09:33:25.543Z,16.20
2018-05-04T09:35:53.052Z,16.10
2018-05-04T09:38:20.533Z,16.20
2018-05-04T09:40:48.064Z,16.30
2018-05-04T09:43:16.329Z,16.40
2018-05-04T09:45:44.649Z,16.40
2018-05-04T09:48:12.141Z,16.40
2018-05-04T09:50:39.643Z,16.40
2018-05-04T09:53:07.901Z,16.60
2018-05-04T09:55:35.598Z,16.60
2018-05-04T09:58:03.104Z,16.60
2018-05-04T10:00:30.687Z,16.70
2018-05-04T10:02:58.191Z,16.90
2018-05-04T10:05:26.652Z,16.90
2018-05-04T10:07:54.938Z,16.80
2018-05-04T10:10:23.679Z,16.70
2018-05-04T10:12:51.267Z,16.70
2018-05-04T10:15:18.773Z,16.70
2018-05-04T10:17:47.110Z,16.90
2018-05-04T10:20:14.673Z,16.90
2018-05-04T10:22:42.187Z,17.10
2018-05-04T10:25:09.722Z,17.00
2018-05-04T10:27:37.213Z,17.00
2018-05-04T10:30:05.684Z,17.00
2018-05-04T10:32:33.946Z,17.20
2018-05-04T10:35:01.460Z,17.20
2018-05-04T10:37:28.962Z,17.20
2018-05-04T10:39:56.481Z,17.20
2018-05-04T10:42:23.985Z,17.20
2018-05-04T10:44:51.593Z,17.30
2018-05-04T10:47:19.955Z,17.40
2018-05-04T10:49:48.251Z,17.60
2018-05-04T10:52:16.533Z,17.70
2018-05-04T10:54:44.910Z,17.60
2018-05-04T10:57:13.227Z,17.50
2018-05-04T10:59:42.233Z,17.50
2018-05-04T11:02:09.719Z,17.50
2018-05-04T11:04:37.280Z,17.50
2018-05-04T11:07:04.822Z,17.50
2018-05-04T11:09:32.322Z,17.70
2018-05-04T11:11:59.855Z,17.80
2018-05-04T11:14:27.371Z,18.00
2018-05-04T11:16:55.806Z,18.20
2018-05-04T11:19:23.348Z,18.10
2018-05-04T11:21:51.599Z,18.00
2018-05-04T11:24:19.871Z,17.90
2018-05-04T11:26:47.429Z,17.90
2018-05-04T11:29:15.813Z,17.80
2018-05-04T11:31:44.167Z,17.70
2018-05-04T11:34:11.673Z,17.70
2018-05-04T11:36:39.961Z,17.90
2018-05-04T11:39:08.240Z,18.00
2018-05-04T11:41:36.541Z,18.20
2018-05-04T11:44:04.142Z,18.10
2018-05-04T11:46:31.646Z,18.10
2018-05-04T11:48:59.957Z,18.00
2018-05-04T11:51:27.475Z,18.00
2018-05-04T11:53:55.030Z,18.00
2018-05-04T11:56:23.111Z,17.90
2018-05-04T11:58:55.742Z,17.90
2018-05-04T12:01:23.578Z,18.10
2018-05-04T12:03:51.866Z,18.30
2018-05-04T12:06:20.137Z,18.40
2018-05-04T12:08:48.691Z,18.30
2018-05-04T12:11:16.381Z,18.20
2018-05-04T12:13:43.879Z,18.30
2018-05-04T12:16:11.439Z,18.30
2018-05-04T12:18:40.518Z,18.10
2018-05-04T12:21:08.847Z,18.20
2018-05-04T12:23:36.394Z,18.20
2018-05-04T12:26:03.914Z,18.10
2018-05-04T12:28:31.455Z,18.10
2018-05-04T12:30:59.759Z,18.00
2018-05-04T12:33:27.290Z,18.00
2018-05-04T12:35:55.002Z,18.00
2018-05-04T12:38:22.552Z,18.10
2018-05-04T12:40:50.676Z,18.10
2018-05-04T12:43:18.283Z,18.10
2018-05-04T12:45:45.861Z,18.30
2018-05-04T12:48:13.394Z,18.40
2018-05-04T12:50:40.910Z,18.40
2018-05-04T12:53:09.223Z,18.60
2018-05-04T12:55:36.889Z,18.60
2018-05-04T12:58:04.394Z,18.70
2018-05-04T13:00:31.905Z,18.80
2018-05-04T13:02:59.429Z,18.70
2018-05-04T13:05:26.952Z,18.80
2018-05-04T13:07:54.521Z,18.80
2018-05-04T13:10:22.061Z,18.90
2018-05-04T13:12:49.595Z,18.90
2018-05-04T13:15:17.122Z,18.90
2018-05-04T13:17:44.631Z,18.70
2018-05-04T13:20:12.925Z,18.70
2018-05-04T13:22:41.197Z,18.80
2018-05-04T13:25:09.491Z,19.00
2018-05-04T13:27:37.047Z,19.00
2018-05-04T13:30:05.332Z,19.10
2018-05-04T13:32:32.837Z,19.10
2018-05-04T13:35:00.383Z,19.20
2018-05-04T13:37:28.021Z,19.20
2018-05-04T13:39:56.329Z,19.40
2018-05-04T13:42:23.816Z,19.40
2018-05-04T13:44:51.333Z,19.30
2018-05-04T13:47:18.865Z,19.10
2018-05-04T13:49:47.890Z,19.10
2018-05-04T13:52:16.401Z,19.10
2018-05-04T13:54:44.129Z,19.10
2018-05-04T13:57:12.407Z,19.10
2018-05-04T13:59:40.671Z,19.10
2018-05-04T14:02:08.978Z,19.10
2018-05-04T14:04:37.284Z,19.30
2018-05-04T14:07:04.801Z,19.30
2018-05-04T14:09:32.352Z,19.30
2018-05-04T14:11:59.868Z,19.50
2018-05-04T14:14:27.412Z,19.60
2018-05-04T14:16:55.685Z,20.00
2018-05-04T14:19:23.213Z,20.00
2018-05-04T14:21:50.737Z,20.00
2018-05-04T14:24:19.150Z,19.70
2018-05-04T14:26:46.663Z,19.60
2018-05-04T14:29:15.087Z,19.40
2018-05-04T14:31:42.651Z,19.40
2018-05-04T14:34:10.155Z,19.40
2018-05-04T14:36:37.667Z,19.50
2018-05-04T14:39:07.358Z,19.60
2018-05-04T14:41:35.241Z,19.60
2018-05-04T14:44:03.791Z,19.20
2018-05-04T14:46:31.311Z,19.20
2018-05-04T14:49:04.890Z,19.10
2018-05-04T14:51:33.203Z,19.00
2018-05-04T14:54:00.707Z,19.00
2018-05-04T14:56:28.223Z,19.10
2018-05-04T14:58:55.714Z,19.30
2018-05-04T15:01:23.242Z,19.30
2018-05-04T15:03:50.869Z,19.30
2018-05-04T15:06:18.367Z,19.20
2018-05-04T15:08:45.959Z,19.30
2018-05-04T15:11:13.501Z,19.30
2018-05-04T15:13:41.056Z,19.30
2018-05-04T15:16:08.621Z,19.30
2018-05-04T15:18:36.889Z,19.30
2018-05-04T15:21:05.165Z,19.30
2018-05-04T15:23:33.429Z,19.30
2018-05-04T15:26:02.341Z,19.30
2018-05-04T15:28:30.623Z,19.20
2018-05-04T15:30:59.261Z,19.10
2018-05-04T15:33:26.843Z,19.10
2018-05-04T15:35:55.092Z,19.00
2018-05-04T15:38:23.819Z,18.90
2018-05-04T15:40:52.400Z,18.90
2018-05-04T15:43:21.487Z,18.80
2018-05-04T15:45:48.978Z,18.80
2018-05-04T15:48:22.252Z,18.50
2018-05-04T15:50:55.424Z,18.40
2018-05-04T15:53:22.955Z,18.80
2018-05-04T15:55:51.293Z,20.80
2018-05-04T15:58:18.929Z,20.70
2018-05-04T16:00:46.487Z,20.80
2018-05-04T16:03:14.011Z,20.00
2018-05-04T16:05:41.533Z,19.30
2018-05-04T16:08:10.190Z,18.90
2018-05-04T16:10:38.633Z,18.50
2018-05-04T16:13:06.160Z,18.50
2018-05-04T16:15:33.757Z,18.30
2018-05-04T16:18:01.477Z,18.20
2018-05-04T16:20:29.150Z,18.00
2018-05-04T16:22:56.701Z,17.90
2018-05-04T16:25:24.989Z,17.80
2018-05-04T16:27:52.637Z,17.80
2018-05-04T16:30:21.023Z,17.70
2018-05-04T16:32:49.326Z,17.70
2018-05-04T16:35:16.914Z,17.70
2018-05-04T16:37:44.497Z,17.60
2018-05-04T16:40:12.003Z,17.60
2018-05-04T16:42:40.293Z,17.50
2018-05-04T16:45:07.820Z,17.50
2018-05-04T16:47:41.281Z,17.40
2018-05-04T16:50:08.797Z,17.40
2018-05-04T16:52:37.426Z,17.30
2018-05-04T16:55:05.848Z,17.30
2018-05-04T16:57:33.385Z,17.20
2018-05-04T17:00:00.902Z,17.10
2018-05-04T17:02:28.588Z,16.90
2018-05-04T17:04:57.012Z,16.90
2018-05-04T17:07:25.976Z,16.80
2018-05-04T17:09:53.504Z,16.80
2018-05-04T17:12:21.895Z,16.80
2018-05-04T17:14:50.863Z,16.70
2018-05-04T17:17:18.523Z,16.70
2018-05-04T17:19:46.037Z,16.60
2018-05-04T17:22:14.373Z,16.50
2018-05-04T17:24:42.114Z,16.50
2018-05-04T17:27:10.541Z,16.50
2018-05-04T17:29:39.624Z,16.40
2018-05-04T17:32:09.432Z,16.40
2018-05-04T17:34:37.100Z,16.40
2018-05-04T17:37:04.635Z,16.30
2018-05-04T17:39:32.165Z,16.30
2018-05-04T17:42:00.475Z,16.20
2018-05-04T17:44:27.998Z,16.20
2018-05-04T17:46:56.306Z,16.10
2018-05-04T17:49:23.824Z,16.10
2018-05-04T17:51:51.317Z,16.10
2018-05-04T17:54:19.626Z,16.00
2018-05-04T17:56:47.139Z,16.00
2018-05-04T17:59:16.628Z,15.90
2018-05-04T18:01:44.152Z,15.90
2018-05-04T18:04:11.659Z,15.80
2018-05-04T18:06:39.197Z,15.80
2018-05-04T18:09:07.823Z,15.70
2018-05-04T18:11:35.419Z,15.60
2018-05-04T18:14:03.777Z,15.50
2018-05-04T18:16:31.417Z,15.50
2018-05-04T18:19:00.255Z,15.50
2018-05-04T18:21:28.007Z,15.40
2018-05-04T18:23:57.039Z,15.30
2018-05-04T18:26:25.295Z,15.20
2018-05-04T18:28:53.593Z,15.10
2018-05-04T18:31:21.879Z,15.10
2018-05-04T18:33:49.704Z,15.10
2018-05-04T18:36:18.317Z,15.00
2018-05-04T18:38:45.965Z,15.00
2018-05-04T18:41:14.311Z,14.90
2018-05-04T18:43:41.851Z,14.90
2018-05-04T18:46:10.222Z,14.80
2018-05-04T18:48:38.505Z,14.70
2018-05-04T18:51:06.859Z,14.70
2018-05-04T18:53:34.472Z,14.70
2018-05-04T18:56:02.007Z,14.70
2018-05-04T18:58:30.339Z,14.60
2018-05-04T19:00:57.863Z,14.60
2018-05-04T19:03:25.435Z,14.60
2018-05-04T19:05:53.745Z,14.40
2018-05-04T19:08:21.249Z,14.40
2018-05-04T19:10:48.865Z,14.40
2018-05-04T19:13:16.372Z,14.40
2018-05-04T19:15:44.464Z,14.40
2018-05-04T19:18:12.017Z,14.30
2018-05-04T19:20:39.695Z,14.20
2018-05-04T19:23:07.282Z,14.20
2018-05-04T19:25:35.685Z,14.00
2018-05-04T19:28:03.220Z,14.00
2018-05-04T19:30:31.500Z,13.90
2018-05-04T19:32:59.766Z,13.80
2018-05-04T19:35:27.307Z,13.80
2018-05-04T19:37:55.216Z,13.80
2018-05-04T19:40:23.601Z,13.70
2018-05-04T19:42:52.659Z,13.60
2018-05-04T19:45:20.184Z,13.60
2018-05-04T19:47:47.841Z,13.60
2018-05-04T19:50:16.160Z,13.40
2018-05-04T19:52:43.699Z,13.40
2018-05-04T19:55:11.987Z,13.40
2018-05-04T19:57:39.497Z,13.30
2018-05-04T20:00:07.174Z,13.20
2018-05-04T20:02:36.558Z,13.10
2018-05-04T20:05:04.127Z,13.10
2018-05-04T20:07:32.453Z,13.00
2018-05-04T20:10:00.850Z,13.00
2018-05-04T20:12:28.385Z,13.00
2018-05-04T20:14:56.666Z,12.80
2018-05-04T20:17:25.149Z,12.80
2018-05-04T20:19:53.432Z,12.70
2018-05-04T20:22:21.720Z,12.70
2018-05-04T20:24:50.244Z,12.60
2018-05-04T20:27:17.787Z,12.60
2018-05-04T20:29:45.292Z,12.60
2018-05-04T20:32:12.839Z,12.50
2018-05-04T20:34:41.823Z,12.50
2018-05-04T20:37:10.866Z,12.40
2018-05-04T20:39:39.202Z,12.30
2018-05-04T20:42:06.735Z,12.30
2018-05-04T20:44:35.623Z,12.30
2018-05-04T20:47:03.935Z,12.20
2018-05-04T20:49:31.419Z,12.20
2018-05-04T20:51:58.975Z,12.20
2018-05-04T20:54:26.500Z,12.20
2018-05-04T20:56:55.285Z,12.00
2018-05-04T20:59:23.927Z,12.00
2018-05-04T21:01:52.323Z,11.90
2018-05-04T21:04:19.891Z,11.90
2018-05-04T21:06:47.435Z,11.90
2018-05-04T21:09:15.381Z,11.80
2018-05-04T21:11:45.699Z,11.80
2018-05-04T21:14:13.982Z,11.70
2018-05-04T21:16:42.334Z,11.60
2018-05-04T21:19:11.491Z,11.60
2018-05-04T21:21:39.015Z,11.60
2018-05-04T21:24:08.552Z,11.50
2018-05-04T21:26:36.897Z,11.50
2018-05-04T21:29:04.403Z,11.50
2018-05-04T21:31:31.940Z,11.40
2018-05-04T21:34:00.230Z,11.30
2018-05-04T21:36:27.785Z,11.30
2018-05-04T21:38:56.113Z,11.30
2018-05-04T21:41:23.641Z,11.20
2018-05-04T21:43:51.991Z,11.20
2018-05-04T21:46:21.087Z,11.10
2018-05-04T21:48:49.371Z,11.10
2018-05-04T21:51:18.445Z,11.00
2018-05-04T21:53:46.596Z,11.00
2018-05-04T21:56:14.600Z,11.00
2018-05-04T21:58:42.137Z,11.00
2018-05-04T22:01:09.738Z,11.00
2018-05-04T22:03:38.072Z,10.90
2018-05-04T22:06:05.574Z,10.90
2018-05-04T22:08:33.099Z,10.90
2018-05-04T22:11:00.708Z,10.90
2018-05-04T22:13:29.039Z,10.80
2018-05-04T22:15:56.526Z,10.80
2018-05-04T22:18:24.053Z,10.80
2018-05-04T22:20:52.583Z,10.70
2018-05-04T22:23:20.113Z,10.70
2018-05-04T22:25:48.376Z,10.60
2018-05-04T22:28:16.413Z,10.60
2018-05-04T22:30:43.919Z,10.60
2018-05-04T22:33:12.179Z,10.50
2018-05-04T22:35:39.747Z,10.50
2018-05-04T22:38:07.424Z,10.50
2018-05-04T22:40:35.352Z,10.50
2018-05-04T22:43:02.899Z,10.40
2018-05-04T22:45:30.425Z,10.40
2018-05-04T22:47:57.991Z,10.40
2018-05-04T22:50:26.500Z,10.40
2018-05-04T22:52:54.363Z,10.30
2018-05-04T22:55:22.889Z,10.30
2018-05-04T22:57:50.447Z,10.30
2018-05-04T23:00:18.730Z,10.30
2018-05-04T23:02:46.231Z,10.30
2018-05-04T23:05:15.264Z,10.10
2018-05-04T23:07:43.539Z,10.10
2018-05-04T23:10:12.538Z,10.10
2018-05-04T23:12:40.810Z,10.10
2018-05-04T23:15:09.077Z,10.00
2018-05-04T23:17:37.349Z,10.00
2018-05-04T23:20:04.883Z,10.00
2018-05-04T23:22:32.378Z,10.00
2018-05-04T23:25:00.734Z,9.90
2018-05-04T23:27:28.331Z,9.90
2018-05-04T23:29:56.598Z,10.00
2018-05-04T23:32:24.116Z,9.90
2018-05-04T23:34:51.637Z,9.90
2018-05-04T23:37:19.133Z,9.90
2018-05-04T23:39:46.613Z,9.90
2018-05-04T23:42:14.121Z,9.90
2018-05-04T23:44:41.647Z,9.80
2018-05-04T23:47:09.135Z,9.80
2018-05-04T23:49:36.625Z,9.80
2018-05-04T23:52:04.152Z,9.70
2018-05-04T23:54:31.685Z,9.70
2018-05-04T23:56:59.270Z,9.70
2018-05-04T23:59:26.784Z,9.70
